sensor_id;sensor_type;location;lat;lon;timestamp;temperature;humidity
45060;DHT22;30799;49.060;9.312;2022-10-16T00:01:53;21.00;68.90
45060;DHT22;30799;49.060;9.312;2022-10-16T00:04:20;21.00;68.90
45060;DHT22;30799;49.060;9.312;2022-10-16T00:06:46;20.90;68.80
45060;DHT22;30799;49.060;9.312;2022-10-16T00:09:13;20.90;68.80
45060;DHT22;30799;49.060;9.312;2022-10-16T00:11:40;20.90;68.80
45060;DHT22;30799;49.060;9.312;2022-10-16T00:14:08;21.00;68.80
45060;DHT22;30799;49.060;9.312;2022-10-16T00:16:35;20.90;68.80
45060;DHT22;30799;49.060;9.312;2022-10-16T00:19:02;21.00;68.90
45060;DHT22;30799;49.060;9.312;2022-10-16T00:21:29;21.00;68.80
45060;DHT22;30799;49.060;9.312;2022-10-16T00:23:57;21.00;68.90
45060;DHT22;30799;49.060;9.312;2022-10-16T00:26:25;21.00;68.80
45060;DHT22;30799;49.060;9.312;2022-10-16T00:28:52;20.90;68.80
45060;DHT22;30799;49.060;9.312;2022-10-16T00:31:20;21.00;68.80
45060;DHT22;30799;49.060;9.312;2022-10-16T00:33:47;21.00;68.80
45060;DHT22;30799;49.060;9.312;2022-10-16T00:36:15;20.90;69.60
45060;DHT22;30799;49.060;9.312;2022-10-16T00:38:42;20.90;68.70
45060;DHT22;30799;49.060;9.312;2022-10-16T00:41:13;20.90;68.70
45060;DHT22;30799;49.060;9.312;2022-10-16T00:43:50;20.90;68.80
45060;DHT22;30799;49.060;9.312;2022-10-16T00:46:21;20.90;68.70
45060;DHT22;30799;49.060;9.312;2022-10-16T00:51:18;21.00;68.80
45060;DHT22;30799;49.060;9.312;2022-10-16T00:53:45;21.00;68.80
45060;DHT22;30799;49.060;9.312;2022-10-16T00:56:12;21.00;68.80
45060;DHT22;30799;49.060;9.312;2022-10-16T00:58:39;21.00;68.70
45060;DHT22;30799;49.060;9.312;2022-10-16T01:01:05;20.90;68.80
45060;DHT22;30799;49.060;9.312;2022-10-16T01:03:33;21.00;68.80
45060;DHT22;30799;49.060;9.312;2022-10-16T01:08:38;21.00;68.70
45060;DHT22;30799;49.060;9.312;2022-10-16T01:11:51;21.00;68.80
45060;DHT22;30799;49.060;9.312;2022-10-16T01:13:58;21.00;68.80
45060;DHT22;30799;49.060;9.312;2022-10-16T01:18:54;21.00;68.80
45060;DHT22;30799;49.060;9.312;2022-10-16T01:21:36;20.90;68.70
45060;DHT22;30799;49.060;9.312;2022-10-16T01:29:09;20.90;68.70
45060;DHT22;30799;49.060;9.312;2022-10-16T01:31:36;20.90;68.70
45060;DHT22;30799;49.060;9.312;2022-10-16T01:34:12;20.90;68.70
45060;DHT22;30799;49.060;9.312;2022-10-16T01:37:01;21.00;68.70
45060;DHT22;30799;49.060;9.312;2022-10-16T01:39:29;21.00;68.70
45060;DHT22;30799;49.060;9.312;2022-10-16T01:41:59;21.00;68.80
45060;DHT22;30799;49.060;9.312;2022-10-16T01:44:30;21.00;68.70
45060;DHT22;30799;49.060;9.312;2022-10-16T01:46:58;20.90;68.70
45060;DHT22;30799;49.060;9.312;2022-10-16T01:49:26;21.00;68.70
45060;DHT22;30799;49.060;9.312;2022-10-16T01:51:55;20.90;68.70
45060;DHT22;30799;49.060;9.312;2022-10-16T01:54:23;21.00;68.70
45060;DHT22;30799;49.060;9.312;2022-10-16T01:56:50;21.00;68.70
45060;DHT22;30799;49.060;9.312;2022-10-16T01:59:18;21.00;68.70
45060;DHT22;30799;49.060;9.312;2022-10-16T02:01:50;21.00;68.80
45060;DHT22;30799;49.060;9.312;2022-10-16T02:04:21;20.90;68.70
45060;DHT22;30799;49.060;9.312;2022-10-16T02:06:49;20.90;68.70
45060;DHT22;30799;49.060;9.312;2022-10-16T02:09:16;20.90;68.70
45060;DHT22;30799;49.060;9.312;2022-10-16T02:11:43;21.00;68.70
45060;DHT22;30799;49.060;9.312;2022-10-16T02:14:10;21.00;68.70
45060;DHT22;30799;49.060;9.312;2022-10-16T02:16:38;20.90;68.70
45060;DHT22;30799;49.060;9.312;2022-10-16T02:19:05;20.90;68.70
45060;DHT22;30799;49.060;9.312;2022-10-16T02:21:54;20.90;68.70
45060;DHT22;30799;49.060;9.312;2022-10-16T02:26:48;21.00;68.70
45060;DHT22;30799;49.060;9.312;2022-10-16T02:29:16;21.00;68.70
45060;DHT22;30799;49.060;9.312;2022-10-16T02:31:45;21.00;68.70
45060;DHT22;30799;49.060;9.312;2022-10-16T02:34:13;20.90;68.70
45060;DHT22;30799;49.060;9.312;2022-10-16T02:36:40;20.90;68.60
45060;DHT22;30799;49.060;9.312;2022-10-16T02:39:08;21.00;68.70
45060;DHT22;30799;49.060;9.312;2022-10-16T02:41:35;20.90;68.70
45060;DHT22;30799;49.060;9.312;2022-10-16T02:44:01;21.00;68.70
45060;DHT22;30799;49.060;9.312;2022-10-16T02:46:28;21.00;68.70
45060;DHT22;30799;49.060;9.312;2022-10-16T02:48:55;21.00;68.70
45060;DHT22;30799;49.060;9.312;2022-10-16T02:51:21;20.90;68.60
45060;DHT22;30799;49.060;9.312;2022-10-16T02:53:48;21.00;68.70
45060;DHT22;30799;49.060;9.312;2022-10-16T02:56:14;21.00;68.70
45060;DHT22;30799;49.060;9.312;2022-10-16T02:58:41;20.90;68.60
45060;DHT22;30799;49.060;9.312;2022-10-16T03:01:07;21.00;68.70
45060;DHT22;30799;49.060;9.312;2022-10-16T03:03:34;21.00;68.70
45060;DHT22;30799;49.060;9.312;2022-10-16T03:06:01;21.00;68.70
45060;DHT22;30799;49.060;9.312;2022-10-16T03:08:28;21.00;68.70
45060;DHT22;30799;49.060;9.312;2022-10-16T03:10:55;20.90;68.60
45060;DHT22;30799;49.060;9.312;2022-10-16T03:13:22;21.00;68.70
45060;DHT22;30799;49.060;9.312;2022-10-16T03:15:48;20.90;68.60
45060;DHT22;30799;49.060;9.312;2022-10-16T03:18:15;20.90;68.60
45060;DHT22;30799;49.060;9.312;2022-10-16T03:20:42;21.00;68.70
45060;DHT22;30799;49.060;9.312;2022-10-16T03:23:09;21.00;68.60
45060;DHT22;30799;49.060;9.312;2022-10-16T03:25:35;21.00;68.70
45060;DHT22;30799;49.060;9.312;2022-10-16T03:28:02;21.00;68.70
45060;DHT22;30799;49.060;9.312;2022-10-16T03:30:29;20.90;68.60
45060;DHT22;30799;49.060;9.312;2022-10-16T03:32:56;20.90;68.60
45060;DHT22;30799;49.060;9.312;2022-10-16T03:35:23;20.90;68.60
45060;DHT22;30799;49.060;9.312;2022-10-16T03:37:50;20.90;68.60
45060;DHT22;30799;49.060;9.312;2022-10-16T03:40:17;21.00;68.60
45060;DHT22;30799;49.060;9.312;2022-10-16T03:42:43;20.90;68.60
45060;DHT22;30799;49.060;9.312;2022-10-16T03:45:10;21.00;68.70
45060;DHT22;30799;49.060;9.312;2022-10-16T03:47:37;20.90;68.60
45060;DHT22;30799;49.060;9.312;2022-10-16T03:50:04;20.90;68.60
45060;DHT22;30799;49.060;9.312;2022-10-16T03:52:30;20.90;68.60
45060;DHT22;30799;49.060;9.312;2022-10-16T03:54:58;21.00;68.70
45060;DHT22;30799;49.060;9.312;2022-10-16T03:57:26;21.00;68.60
45060;DHT22;30799;49.060;9.312;2022-10-16T03:59:53;21.00;68.60
45060;DHT22;30799;49.060;9.312;2022-10-16T04:02:20;21.00;68.60
45060;DHT22;30799;49.060;9.312;2022-10-16T04:04:47;21.00;68.60
45060;DHT22;30799;49.060;9.312;2022-10-16T04:07:13;21.00;68.60
45060;DHT22;30799;49.060;9.312;2022-10-16T04:09:40;21.00;68.60
45060;DHT22;30799;49.060;9.312;2022-10-16T04:12:07;21.00;68.60
45060;DHT22;30799;49.060;9.312;2022-10-16T04:14:33;21.00;68.60
45060;DHT22;30799;49.060;9.312;2022-10-16T04:17:00;21.00;68.60
45060;DHT22;30799;49.060;9.312;2022-10-16T04:19:27;21.00;68.60
45060;DHT22;30799;49.060;9.312;2022-10-16T04:21:53;20.90;68.60
45060;DHT22;30799;49.060;9.312;2022-10-16T04:24:20;21.00;68.60
45060;DHT22;30799;49.060;9.312;2022-10-16T04:26:46;20.90;68.50
45060;DHT22;30799;49.060;9.312;2022-10-16T04:29:13;20.90;68.50
45060;DHT22;30799;49.060;9.312;2022-10-16T04:31:39;20.90;68.60
45060;DHT22;30799;49.060;9.312;2022-10-16T04:34:06;20.90;68.50
45060;DHT22;30799;49.060;9.312;2022-10-16T04:36:32;20.90;68.50
45060;DHT22;30799;49.060;9.312;2022-10-16T04:38:59;20.90;68.50
45060;DHT22;30799;49.060;9.312;2022-10-16T04:41:25;21.00;68.60
45060;DHT22;30799;49.060;9.312;2022-10-16T04:43:52;20.90;69.30
45060;DHT22;30799;49.060;9.312;2022-10-16T04:46:18;20.90;68.60
45060;DHT22;30799;49.060;9.312;2022-10-16T04:48:45;21.00;68.60
45060;DHT22;30799;49.060;9.312;2022-10-16T04:51:13;20.90;68.50
45060;DHT22;30799;49.060;9.312;2022-10-16T04:53:39;20.90;68.60
45060;DHT22;30799;49.060;9.312;2022-10-16T04:56:06;20.90;68.60
45060;DHT22;30799;49.060;9.312;2022-10-16T04:58:32;20.90;68.50
45060;DHT22;30799;49.060;9.312;2022-10-16T05:00:59;21.00;68.60
45060;DHT22;30799;49.060;9.312;2022-10-16T05:03:26;21.00;68.60
45060;DHT22;30799;49.060;9.312;2022-10-16T05:05:52;20.90;68.50
45060;DHT22;30799;49.060;9.312;2022-10-16T05:08:19;20.90;68.50
45060;DHT22;30799;49.060;9.312;2022-10-16T05:10:45;21.00;68.60
45060;DHT22;30799;49.060;9.312;2022-10-16T05:13:12;20.90;68.50
45060;DHT22;30799;49.060;9.312;2022-10-16T05:15:38;20.90;68.50
45060;DHT22;30799;49.060;9.312;2022-10-16T05:18:05;20.90;68.50
45060;DHT22;30799;49.060;9.312;2022-10-16T05:20:32;20.90;68.50
45060;DHT22;30799;49.060;9.312;2022-10-16T05:22:58;20.90;68.50
45060;DHT22;30799;49.060;9.312;2022-10-16T05:25:25;20.90;68.50
45060;DHT22;30799;49.060;9.312;2022-10-16T05:27:51;20.90;68.50
45060;DHT22;30799;49.060;9.312;2022-10-16T05:30:18;20.90;68.50
45060;DHT22;30799;49.060;9.312;2022-10-16T05:32:48;21.00;68.60
45060;DHT22;30799;49.060;9.312;2022-10-16T05:35:15;20.90;68.50
45060;DHT22;30799;49.060;9.312;2022-10-16T05:37:42;20.90;68.50
45060;DHT22;30799;49.060;9.312;2022-10-16T05:40:09;20.90;68.50
45060;DHT22;30799;49.060;9.312;2022-10-16T05:42:36;20.90;68.50
45060;DHT22;30799;49.060;9.312;2022-10-16T05:45:04;20.90;68.50
45060;DHT22;30799;49.060;9.312;2022-10-16T05:47:31;20.90;68.50
45060;DHT22;30799;49.060;9.312;2022-10-16T05:49:57;20.90;68.50
45060;DHT22;30799;49.060;9.312;2022-10-16T05:52:24;20.90;68.50
45060;DHT22;30799;49.060;9.312;2022-10-16T05:54:50;20.90;68.50
45060;DHT22;30799;49.060;9.312;2022-10-16T05:57:17;20.90;68.50
45060;DHT22;30799;49.060;9.312;2022-10-16T05:59:43;20.90;68.50
45060;DHT22;30799;49.060;9.312;2022-10-16T06:02:13;20.90;68.50
45060;DHT22;30799;49.060;9.312;2022-10-16T06:04:39;20.90;68.50
45060;DHT22;30799;49.060;9.312;2022-10-16T06:07:07;20.90;68.50
45060;DHT22;30799;49.060;9.312;2022-10-16T06:09:34;21.00;68.60
45060;DHT22;30799;49.060;9.312;2022-10-16T06:12:00;20.90;68.50
45060;DHT22;30799;49.060;9.312;2022-10-16T06:14:27;20.90;68.50
45060;DHT22;30799;49.060;9.312;2022-10-16T06:16:53;20.90;68.50
45060;DHT22;30799;49.060;9.312;2022-10-16T06:19:20;20.90;68.50
45060;DHT22;30799;49.060;9.312;2022-10-16T06:21:46;20.90;68.50
45060;DHT22;30799;49.060;9.312;2022-10-16T06:24:14;20.90;68.50
45060;DHT22;30799;49.060;9.312;2022-10-16T06:26:40;20.90;68.50
45060;DHT22;30799;49.060;9.312;2022-10-16T06:29:07;20.90;68.50
45060;DHT22;30799;49.060;9.312;2022-10-16T06:31:34;20.90;68.50
45060;DHT22;30799;49.060;9.312;2022-10-16T06:34:01;20.90;68.50
45060;DHT22;30799;49.060;9.312;2022-10-16T06:36:28;20.90;68.50
45060;DHT22;30799;49.060;9.312;2022-10-16T06:38:54;20.90;68.50
45060;DHT22;30799;49.060;9.312;2022-10-16T06:41:22;20.90;68.50
45060;DHT22;30799;49.060;9.312;2022-10-16T06:43:49;20.90;68.50
45060;DHT22;30799;49.060;9.312;2022-10-16T06:46:17;20.90;68.50
45060;DHT22;30799;49.060;9.312;2022-10-16T06:48:44;20.90;68.50
45060;DHT22;30799;49.060;9.312;2022-10-16T06:51:11;20.90;68.50
45060;DHT22;30799;49.060;9.312;2022-10-16T06:53:45;20.90;68.50
45060;DHT22;30799;49.060;9.312;2022-10-16T06:56:28;20.90;68.50
45060;DHT22;30799;49.060;9.312;2022-10-16T06:58:57;20.90;68.50
45060;DHT22;30799;49.060;9.312;2022-10-16T07:01:23;20.90;68.50
45060;DHT22;30799;49.060;9.312;2022-10-16T07:03:50;20.90;68.50
45060;DHT22;30799;49.060;9.312;2022-10-16T07:06:17;20.90;68.40
45060;DHT22;30799;49.060;9.312;2022-10-16T07:08:45;20.90;68.40
45060;DHT22;30799;49.060;9.312;2022-10-16T07:11:13;20.90;68.40
45060;DHT22;30799;49.060;9.312;2022-10-16T07:13:40;21.00;68.50
45060;DHT22;30799;49.060;9.312;2022-10-16T07:16:08;20.90;68.40
45060;DHT22;30799;49.060;9.312;2022-10-16T07:18:35;21.00;68.50
45060;DHT22;30799;49.060;9.312;2022-10-16T07:21:06;20.90;68.40
45060;DHT22;30799;49.060;9.312;2022-10-16T07:23:33;21.00;68.50
45060;DHT22;30799;49.060;9.312;2022-10-16T07:26:00;21.00;68.50
45060;DHT22;30799;49.060;9.312;2022-10-16T07:28:28;21.00;68.50
45060;DHT22;30799;49.060;9.312;2022-10-16T07:30:55;20.90;68.40
45060;DHT22;30799;49.060;9.312;2022-10-16T07:33:21;20.90;68.40
45060;DHT22;30799;49.060;9.312;2022-10-16T07:35:49;20.90;68.40
45060;DHT22;30799;49.060;9.312;2022-10-16T07:38:16;20.90;68.40
45060;DHT22;30799;49.060;9.312;2022-10-16T07:40:42;20.90;68.40
45060;DHT22;30799;49.060;9.312;2022-10-16T07:43:09;20.90;68.40
45060;DHT22;30799;49.060;9.312;2022-10-16T07:45:35;20.90;68.40
45060;DHT22;30799;49.060;9.312;2022-10-16T07:48:02;20.90;68.40
45060;DHT22;30799;49.060;9.312;2022-10-16T07:50:29;20.90;68.40
45060;DHT22;30799;49.060;9.312;2022-10-16T07:52:55;21.00;68.40
45060;DHT22;30799;49.060;9.312;2022-10-16T07:55:22;20.90;68.40
45060;DHT22;30799;49.060;9.312;2022-10-16T07:57:48;21.00;68.40
45060;DHT22;30799;49.060;9.312;2022-10-16T08:00:15;20.90;68.40
45060;DHT22;30799;49.060;9.312;2022-10-16T08:02:41;20.90;68.40
45060;DHT22;30799;49.060;9.312;2022-10-16T08:05:08;20.90;68.40
45060;DHT22;30799;49.060;9.312;2022-10-16T08:07:34;20.90;68.40
45060;DHT22;30799;49.060;9.312;2022-10-16T08:10:01;21.00;68.40
45060;DHT22;30799;49.060;9.312;2022-10-16T08:12:28;21.00;68.40
45060;DHT22;30799;49.060;9.312;2022-10-16T08:14:54;21.00;68.40
45060;DHT22;30799;49.060;9.312;2022-10-16T08:17:21;20.90;68.40
45060;DHT22;30799;49.060;9.312;2022-10-16T08:19:47;20.90;68.40
45060;DHT22;30799;49.060;9.312;2022-10-16T08:22:14;21.00;68.40
45060;DHT22;30799;49.060;9.312;2022-10-16T08:24:40;20.90;68.30
45060;DHT22;30799;49.060;9.312;2022-10-16T08:27:07;21.00;68.30
45060;DHT22;30799;49.060;9.312;2022-10-16T08:29:35;21.00;68.30
45060;DHT22;30799;49.060;9.312;2022-10-16T08:32:03;20.90;68.30
45060;DHT22;30799;49.060;9.312;2022-10-16T08:34:30;20.90;68.30
45060;DHT22;30799;49.060;9.312;2022-10-16T08:36:56;21.00;68.30
45060;DHT22;30799;49.060;9.312;2022-10-16T08:39:23;21.00;68.30
45060;DHT22;30799;49.060;9.312;2022-10-16T08:47:21;20.90;68.20
45060;DHT22;30799;49.060;9.312;2022-10-16T08:49:56;20.90;68.20
45060;DHT22;30799;49.060;9.312;2022-10-16T08:52:25;21.00;68.30
45060;DHT22;30799;49.060;9.312;2022-10-16T08:54:55;21.00;68.30
45060;DHT22;30799;49.060;9.312;2022-10-16T08:57:22;20.90;68.20
45060;DHT22;30799;49.060;9.312;2022-10-16T08:59:52;20.90;68.20
45060;DHT22;30799;49.060;9.312;2022-10-16T09:02:26;20.90;68.20
45060;DHT22;30799;49.060;9.312;2022-10-16T09:12:37;21.00;68.20
45060;DHT22;30799;49.060;9.312;2022-10-16T09:17:52;21.00;68.20
45060;DHT22;30799;49.060;9.312;2022-10-16T09:25:31;21.00;68.20
45060;DHT22;30799;49.060;9.312;2022-10-16T09:27:58;21.00;68.10
45060;DHT22;30799;49.060;9.312;2022-10-16T09:30:26;21.00;68.20
45060;DHT22;30799;49.060;9.312;2022-10-16T09:32:53;21.00;68.10
45060;DHT22;30799;49.060;9.312;2022-10-16T09:35:21;21.00;68.10
45060;DHT22;30799;49.060;9.312;2022-10-16T09:37:50;21.00;68.10
45060;DHT22;30799;49.060;9.312;2022-10-16T09:40:26;21.00;68.10
45060;DHT22;30799;49.060;9.312;2022-10-16T09:43:01;21.00;68.10
45060;DHT22;30799;49.060;9.312;2022-10-16T09:45:28;21.00;68.10
45060;DHT22;30799;49.060;9.312;2022-10-16T09:47:54;21.00;68.10
45060;DHT22;30799;49.060;9.312;2022-10-16T09:50:26;21.00;68.10
45060;DHT22;30799;49.060;9.312;2022-10-16T09:53:07;21.00;68.10
45060;DHT22;30799;49.060;9.312;2022-10-16T09:55:47;21.00;68.10
45060;DHT22;30799;49.060;9.312;2022-10-16T09:58:13;21.00;68.10
45060;DHT22;30799;49.060;9.312;2022-10-16T10:00:41;21.00;68.10
45060;DHT22;30799;49.060;9.312;2022-10-16T10:03:10;21.00;68.10
45060;DHT22;30799;49.060;9.312;2022-10-16T10:05:37;21.00;68.00
45060;DHT22;30799;49.060;9.312;2022-10-16T10:08:05;21.00;68.00
45060;DHT22;30799;49.060;9.312;2022-10-16T10:10:33;21.00;68.00
45060;DHT22;30799;49.060;9.312;2022-10-16T10:13:00;21.00;68.00
45060;DHT22;30799;49.060;9.312;2022-10-16T10:15:27;21.00;68.00
45060;DHT22;30799;49.060;9.312;2022-10-16T10:17:57;21.10;68.00
45060;DHT22;30799;49.060;9.312;2022-10-16T10:20:31;21.00;68.00
45060;DHT22;30799;49.060;9.312;2022-10-16T10:23:01;21.00;68.00
45060;DHT22;30799;49.060;9.312;2022-10-16T10:25:49;21.00;67.90
45060;DHT22;30799;49.060;9.312;2022-10-16T10:33:37;21.00;67.90
45060;DHT22;30799;49.060;9.312;2022-10-16T10:36:08;21.00;67.90
45060;DHT22;30799;49.060;9.312;2022-10-16T10:38:39;21.00;67.80
45060;DHT22;30799;49.060;9.312;2022-10-16T10:46:16;21.10;68.00
45060;DHT22;30799;49.060;9.312;2022-10-16T10:48:55;21.00;67.90
45060;DHT22;30799;49.060;9.312;2022-10-16T10:51:31;21.00;67.90
45060;DHT22;30799;49.060;9.312;2022-10-16T10:54:11;21.10;67.90
45060;DHT22;30799;49.060;9.312;2022-10-16T10:56:47;21.10;67.90
45060;DHT22;30799;49.060;9.312;2022-10-16T11:02:10;21.10;67.90
45060;DHT22;30799;49.060;9.312;2022-10-16T11:07:27;21.10;67.90
45060;DHT22;30799;49.060;9.312;2022-10-16T11:09:59;21.10;67.90
45060;DHT22;30799;49.060;9.312;2022-10-16T11:12:35;21.10;67.90
45060;DHT22;30799;49.060;9.312;2022-10-16T11:17:34;21.10;67.90
45060;DHT22;30799;49.060;9.312;2022-10-16T11:20:04;21.10;67.90
45060;DHT22;30799;49.060;9.312;2022-10-16T11:28:02;21.10;67.80
45060;DHT22;30799;49.060;9.312;2022-10-16T11:30:30;21.10;67.80
45060;DHT22;30799;49.060;9.312;2022-10-16T11:38:19;21.10;67.80
45060;DHT22;30799;49.060;9.312;2022-10-16T11:40:48;21.10;67.70
45060;DHT22;30799;49.060;9.312;2022-10-16T11:43:22;21.10;67.70
45060;DHT22;30799;49.060;9.312;2022-10-16T11:45:57;21.10;67.70
45060;DHT22;30799;49.060;9.312;2022-10-16T11:48:45;21.10;67.80
45060;DHT22;30799;49.060;9.312;2022-10-16T11:54:02;21.10;67.70
45060;DHT22;30799;49.060;9.312;2022-10-16T11:56:31;21.10;67.80
45060;DHT22;30799;49.060;9.312;2022-10-16T12:01:33;21.10;67.80
45060;DHT22;30799;49.060;9.312;2022-10-16T12:04:51;21.10;67.70
45060;DHT22;30799;49.060;9.312;2022-10-16T12:09:31;21.10;67.70
45060;DHT22;30799;49.060;9.312;2022-10-16T12:11:58;21.20;67.80
45060;DHT22;30799;49.060;9.312;2022-10-16T12:14:36;21.10;67.60
45060;DHT22;30799;49.060;9.312;2022-10-16T12:17:24;21.20;67.70
45060;DHT22;30799;49.060;9.312;2022-10-16T12:20:12;21.20;67.70
45060;DHT22;30799;49.060;9.312;2022-10-16T12:22:51;21.10;67.60
45060;DHT22;30799;49.060;9.312;2022-10-16T12:25:21;21.10;67.70
45060;DHT22;30799;49.060;9.312;2022-10-16T12:27:59;21.10;67.60
45060;DHT22;30799;49.060;9.312;2022-10-16T12:30:27;21.10;67.60
45060;DHT22;30799;49.060;9.312;2022-10-16T12:33:33;21.10;67.60
45060;DHT22;30799;49.060;9.312;2022-10-16T12:35:51;21.20;67.70
45060;DHT22;30799;49.060;9.312;2022-10-16T12:40:46;21.10;67.80
45060;DHT22;30799;49.060;9.312;2022-10-16T12:45:58;21.20;67.80
45060;DHT22;30799;49.060;9.312;2022-10-16T12:48:25;21.10;67.60
45060;DHT22;30799;49.060;9.312;2022-10-16T12:51:11;21.20;67.80
45060;DHT22;30799;49.060;9.312;2022-10-16T12:53:38;21.20;67.70
45060;DHT22;30799;49.060;9.312;2022-10-16T12:56:22;21.20;67.70
45060;DHT22;30799;49.060;9.312;2022-10-16T13:01:20;21.20;67.60
45060;DHT22;30799;49.060;9.312;2022-10-16T13:06:32;21.20;67.60
45060;DHT22;30799;49.060;9.312;2022-10-16T13:17:11;21.20;67.60
45060;DHT22;30799;49.060;9.312;2022-10-16T13:19:56;21.20;67.60
45060;DHT22;30799;49.060;9.312;2022-10-16T13:25:10;21.20;67.60
45060;DHT22;30799;49.060;9.312;2022-10-16T13:27:45;21.20;67.60
45060;DHT22;30799;49.060;9.312;2022-10-16T13:30:15;21.20;67.60
45060;DHT22;30799;49.060;9.312;2022-10-16T13:32:46;21.20;67.50
45060;DHT22;30799;49.060;9.312;2022-10-16T13:35:22;21.20;67.40
45060;DHT22;30799;49.060;9.312;2022-10-16T13:37:49;21.20;67.50
45060;DHT22;30799;49.060;9.312;2022-10-16T13:42:46;21.20;67.50
45060;DHT22;30799;49.060;9.312;2022-10-16T13:45:19;21.20;67.50
45060;DHT22;30799;49.060;9.312;2022-10-16T13:47:46;21.20;67.40
45060;DHT22;30799;49.060;9.312;2022-10-16T13:50:17;21.20;67.50
45060;DHT22;30799;49.060;9.312;2022-10-16T13:52:44;21.20;67.50
45060;DHT22;30799;49.060;9.312;2022-10-16T13:55:11;21.20;67.40
45060;DHT22;30799;49.060;9.312;2022-10-16T13:57:38;21.20;67.50
45060;DHT22;30799;49.060;9.312;2022-10-16T14:00:24;21.20;67.50
45060;DHT22;30799;49.060;9.312;2022-10-16T14:02:53;21.20;67.60
45060;DHT22;30799;49.060;9.312;2022-10-16T14:05:21;21.20;67.60
45060;DHT22;30799;49.060;9.312;2022-10-16T14:07:49;21.20;67.60
45060;DHT22;30799;49.060;9.312;2022-10-16T14:10:26;21.20;67.60
45060;DHT22;30799;49.060;9.312;2022-10-16T14:13:00;21.20;67.60
45060;DHT22;30799;49.060;9.312;2022-10-16T14:15:27;21.20;67.60
45060;DHT22;30799;49.060;9.312;2022-10-16T14:17:55;21.20;67.60
45060;DHT22;30799;49.060;9.312;2022-10-16T14:20:24;21.20;67.60
45060;DHT22;30799;49.060;9.312;2022-10-16T14:23:02;21.20;67.60
45060;DHT22;30799;49.060;9.312;2022-10-16T14:25:30;21.20;67.50
45060;DHT22;30799;49.060;9.312;2022-10-16T14:28:17;21.20;67.50
45060;DHT22;30799;49.060;9.312;2022-10-16T14:33:21;21.20;67.60
45060;DHT22;30799;49.060;9.312;2022-10-16T14:35:58;21.20;67.60
45060;DHT22;30799;49.060;9.312;2022-10-16T14:38:26;21.20;67.60
45060;DHT22;30799;49.060;9.312;2022-10-16T14:40:52;21.30;67.60
45060;DHT22;30799;49.060;9.312;2022-10-16T14:43:31;21.30;67.50
45060;DHT22;30799;49.060;9.312;2022-10-16T14:45:58;21.20;67.60
45060;DHT22;30799;49.060;9.312;2022-10-16T14:48:25;21.20;67.60
45060;DHT22;30799;49.060;9.312;2022-10-16T14:50:52;21.20;67.60
45060;DHT22;30799;49.060;9.312;2022-10-16T14:53:18;21.20;67.50
45060;DHT22;30799;49.060;9.312;2022-10-16T14:55:45;21.20;67.60
45060;DHT22;30799;49.060;9.312;2022-10-16T14:58:16;21.20;67.60
45060;DHT22;30799;49.060;9.312;2022-10-16T15:00:43;21.20;67.60
45060;DHT22;30799;49.060;9.312;2022-10-16T15:03:10;21.20;67.50
45060;DHT22;30799;49.060;9.312;2022-10-16T15:05:36;21.20;67.60
45060;DHT22;30799;49.060;9.312;2022-10-16T15:08:03;21.30;67.60
45060;DHT22;30799;49.060;9.312;2022-10-16T15:10:31;21.20;67.50
45060;DHT22;30799;49.060;9.312;2022-10-16T15:12:59;21.30;67.50
45060;DHT22;30799;49.060;9.312;2022-10-16T15:17:52;21.30;67.50
45060;DHT22;30799;49.060;9.312;2022-10-16T15:20:22;21.30;67.50
45060;DHT22;30799;49.060;9.312;2022-10-16T15:22:49;21.30;67.50
45060;DHT22;30799;49.060;9.312;2022-10-16T15:25:25;21.30;67.60
45060;DHT22;30799;49.060;9.312;2022-10-16T15:27:53;21.30;67.50
45060;DHT22;30799;49.060;9.312;2022-10-16T15:30:20;21.30;67.50
45060;DHT22;30799;49.060;9.312;2022-10-16T15:32:47;21.30;67.50
45060;DHT22;30799;49.060;9.312;2022-10-16T15:35:13;21.30;67.50
45060;DHT22;30799;49.060;9.312;2022-10-16T15:37:40;21.30;67.50
45060;DHT22;30799;49.060;9.312;2022-10-16T15:40:07;21.30;67.50
45060;DHT22;30799;49.060;9.312;2022-10-16T15:42:34;21.30;67.50
45060;DHT22;30799;49.060;9.312;2022-10-16T15:45:01;21.30;67.50
45060;DHT22;30799;49.060;9.312;2022-10-16T15:47:27;21.30;67.50
45060;DHT22;30799;49.060;9.312;2022-10-16T15:49:54;21.30;67.50
45060;DHT22;30799;49.060;9.312;2022-10-16T15:52:20;21.30;67.50
45060;DHT22;30799;49.060;9.312;2022-10-16T15:54:47;21.30;67.50
45060;DHT22;30799;49.060;9.312;2022-10-16T15:57:19;21.30;67.50
45060;DHT22;30799;49.060;9.312;2022-10-16T15:59:46;21.30;67.50
45060;DHT22;30799;49.060;9.312;2022-10-16T16:02:12;21.30;67.50
45060;DHT22;30799;49.060;9.312;2022-10-16T16:04:39;21.30;67.50
45060;DHT22;30799;49.060;9.312;2022-10-16T16:07:10;21.30;67.50
45060;DHT22;30799;49.060;9.312;2022-10-16T16:09:37;21.30;67.40
45060;DHT22;30799;49.060;9.312;2022-10-16T16:12:03;21.30;67.50
45060;DHT22;30799;49.060;9.312;2022-10-16T16:14:30;21.30;67.50
45060;DHT22;30799;49.060;9.312;2022-10-16T16:16:57;21.30;67.50
45060;DHT22;30799;49.060;9.312;2022-10-16T16:19:24;21.30;67.50
45060;DHT22;30799;49.060;9.312;2022-10-16T16:21:50;21.30;67.60
45060;DHT22;30799;49.060;9.312;2022-10-16T16:24:17;21.30;67.50
45060;DHT22;30799;49.060;9.312;2022-10-16T16:26:43;21.20;67.40
45060;DHT22;30799;49.060;9.312;2022-10-16T16:29:14;21.30;67.40
45060;DHT22;30799;49.060;9.312;2022-10-16T16:31:40;21.30;67.50
45060;DHT22;30799;49.060;9.312;2022-10-16T16:34:07;21.30;67.40
45060;DHT22;30799;49.060;9.312;2022-10-16T16:36:34;21.30;67.50
45060;DHT22;30799;49.060;9.312;2022-10-16T16:39:01;21.30;67.30
45060;DHT22;30799;49.060;9.312;2022-10-16T16:41:28;21.30;67.50
45060;DHT22;30799;49.060;9.312;2022-10-16T16:44:00;21.30;67.50
45060;DHT22;30799;49.060;9.312;2022-10-16T16:46:27;21.30;67.50
45060;DHT22;30799;49.060;9.312;2022-10-16T16:48:54;21.30;67.50
45060;DHT22;30799;49.060;9.312;2022-10-16T16:51:21;21.30;67.60
45060;DHT22;30799;49.060;9.312;2022-10-16T16:53:49;21.20;67.50
45060;DHT22;30799;49.060;9.312;2022-10-16T16:56:16;21.30;67.50
45060;DHT22;30799;49.060;9.312;2022-10-16T16:58:49;21.30;67.50
45060;DHT22;30799;49.060;9.312;2022-10-16T17:01:16;21.30;67.60
45060;DHT22;30799;49.060;9.312;2022-10-16T17:03:48;21.20;67.50
45060;DHT22;30799;49.060;9.312;2022-10-16T17:06:19;21.20;67.40
45060;DHT22;30799;49.060;9.312;2022-10-16T17:08:47;21.30;67.40
45060;DHT22;30799;49.060;9.312;2022-10-16T17:11:21;21.30;68.30
45060;DHT22;30799;49.060;9.312;2022-10-16T17:13:48;21.30;67.30
45060;DHT22;30799;49.060;9.312;2022-10-16T17:16:22;21.30;67.30
45060;DHT22;30799;49.060;9.312;2022-10-16T17:18:48;21.30;67.30
45060;DHT22;30799;49.060;9.312;2022-10-16T17:21:15;21.30;67.30
45060;DHT22;30799;49.060;9.312;2022-10-16T17:23:41;21.30;67.40